sensor_id;sensor_type;location;lat;lon;timestamp;P1;durP1;ratioP1;P2;durP2;ratioP2
7659;SDS011;3872;47.902;8.162;2023-07-24T00:01:15;13.20;;;5.93;;
7659;SDS011;3872;47.902;8.162;2023-07-24T00:03:43;15.17;;;6.33;;
7659;SDS011;3872;47.902;8.162;2023-07-24T00:06:11;12.67;;;6.03;;
7659;SDS011;3872;47.902;8.162;2023-07-24T00:08:37;16.37;;;6.30;;
7659;SDS011;3872;47.902;8.162;2023-07-24T00:11:06;14.07;;;6.60;;
7659;SDS011;3872;47.902;8.162;2023-07-24T00:13:34;15.70;;;6.13;;
7659;SDS011;3872;47.902;8.162;2023-07-24T00:18:32;15.37;;;5.97;;
7659;SDS011;3872;47.902;8.162;2023-07-24T00:20:59;13.77;;;5.77;;
7659;SDS011;3872;47.902;8.162;2023-07-24T00:23:26;15.13;;;7.07;;
7659;SDS011;3872;47.902;8.162;2023-07-24T00:25:53;13.70;;;5.93;;
7659;SDS011;3872;47.902;8.162;2023-07-24T00:28:21;14.07;;;6.30;;
7659;SDS011;3872;47.902;8.162;2023-07-24T00:30:47;12.43;;;6.03;;
7659;SDS011;3872;47.902;8.162;2023-07-24T00:33:16;13.67;;;5.93;;
7659;SDS011;3872;47.902;8.162;2023-07-24T00:35:43;17.53;;;6.40;;
7659;SDS011;3872;47.902;8.162;2023-07-24T00:38:10;14.97;;;6.53;;
7659;SDS011;3872;47.902;8.162;2023-07-24T00:40:38;12.77;;;5.53;;
7659;SDS011;3872;47.902;8.162;2023-07-24T00:43:05;14.83;;;6.47;;
7659;SDS011;3872;47.902;8.162;2023-07-24T00:45:31;15.17;;;7.33;;
7659;SDS011;3872;47.902;8.162;2023-07-24T00:47:59;13.40;;;6.80;;
7659;SDS011;3872;47.902;8.162;2023-07-24T00:50:26;14.77;;;5.77;;
7659;SDS011;3872;47.902;8.162;2023-07-24T00:52:54;13.03;;;6.83;;
7659;SDS011;3872;47.902;8.162;2023-07-24T00:55:20;14.43;;;7.20;;
7659;SDS011;3872;47.902;8.162;2023-07-24T00:57:49;14.80;;;5.83;;
7659;SDS011;3872;47.902;8.162;2023-07-24T01:00:15;14.57;;;5.97;;
7659;SDS011;3872;47.902;8.162;2023-07-24T01:02:42;13.33;;;6.60;;
7659;SDS011;3872;47.902;8.162;2023-07-24T01:05:10;14.40;;;7.07;;
7659;SDS011;3872;47.902;8.162;2023-07-24T01:07:38;16.43;;;6.30;;
7659;SDS011;3872;47.902;8.162;2023-07-24T01:10:05;12.87;;;6.30;;
7659;SDS011;3872;47.902;8.162;2023-07-24T01:12:35;16.20;;;6.57;;
7659;SDS011;3872;47.902;8.162;2023-07-24T01:15:08;12.90;;;6.60;;
7659;SDS011;3872;47.902;8.162;2023-07-24T01:17:40;11.40;;;6.13;;
7659;SDS011;3872;47.902;8.162;2023-07-24T01:20:11;14.50;;;6.50;;
7659;SDS011;3872;47.902;8.162;2023-07-24T01:22:41;12.57;;;6.50;;
7659;SDS011;3872;47.902;8.162;2023-07-24T01:25:23;15.40;;;6.60;;
7659;SDS011;3872;47.902;8.162;2023-07-24T01:27:55;14.43;;;6.20;;
7659;SDS011;3872;47.902;8.162;2023-07-24T01:30:22;13.67;;;6.80;;
7659;SDS011;3872;47.902;8.162;2023-07-24T01:32:48;15.20;;;5.43;;
7659;SDS011;3872;47.902;8.162;2023-07-24T01:35:15;12.53;;;6.10;;
7659;SDS011;3872;47.902;8.162;2023-07-24T01:37:43;14.17;;;6.33;;
7659;SDS011;3872;47.902;8.162;2023-07-24T01:40:10;13.90;;;6.20;;
7659;SDS011;3872;47.902;8.162;2023-07-24T01:42:38;18.70;;;7.20;;
7659;SDS011;3872;47.902;8.162;2023-07-24T01:45:07;14.50;;;6.57;;
7659;SDS011;3872;47.902;8.162;2023-07-24T01:47:34;14.77;;;5.13;;
7659;SDS011;3872;47.902;8.162;2023-07-24T01:50:01;11.70;;;5.30;;
7659;SDS011;3872;47.902;8.162;2023-07-24T01:52:27;18.30;;;6.80;;
7659;SDS011;3872;47.902;8.162;2023-07-24T01:54:54;12.03;;;6.00;;
7659;SDS011;3872;47.902;8.162;2023-07-24T01:57:20;14.20;;;6.30;;
7659;SDS011;3872;47.902;8.162;2023-07-24T01:59:48;15.33;;;5.73;;
7659;SDS011;3872;47.902;8.162;2023-07-24T02:02:16;13.97;;;5.63;;
7659;SDS011;3872;47.902;8.162;2023-07-24T02:04:42;14.67;;;6.23;;
7659;SDS011;3872;47.902;8.162;2023-07-24T02:07:09;11.60;;;6.00;;
7659;SDS011;3872;47.902;8.162;2023-07-24T02:09:37;9.80;;;5.03;;
7659;SDS011;3872;47.902;8.162;2023-07-24T02:12:04;12.40;;;5.20;;
7659;SDS011;3872;47.902;8.162;2023-07-24T02:14:32;19.63;;;6.60;;
7659;SDS011;3872;47.902;8.162;2023-07-24T02:16:59;10.80;;;6.10;;
7659;SDS011;3872;47.902;8.162;2023-07-24T02:19:28;17.03;;;6.43;;
7659;SDS011;3872;47.902;8.162;2023-07-24T02:21:55;12.00;;;5.97;;
7659;SDS011;3872;47.902;8.162;2023-07-24T02:24:21;16.47;;;6.70;;
7659;SDS011;3872;47.902;8.162;2023-07-24T02:26:48;15.00;;;6.10;;
7659;SDS011;3872;47.902;8.162;2023-07-24T02:29:14;12.83;;;6.60;;
7659;SDS011;3872;47.902;8.162;2023-07-24T02:31:42;14.23;;;5.60;;
7659;SDS011;3872;47.902;8.162;2023-07-24T02:34:08;14.70;;;5.90;;
7659;SDS011;3872;47.902;8.162;2023-07-24T02:36:36;11.40;;;4.93;;
7659;SDS011;3872;47.902;8.162;2023-07-24T02:39:04;13.83;;;6.50;;
7659;SDS011;3872;47.902;8.162;2023-07-24T02:41:31;14.47;;;6.63;;
7659;SDS011;3872;47.902;8.162;2023-07-24T02:43:57;15.07;;;6.70;;
7659;SDS011;3872;47.902;8.162;2023-07-24T02:46:25;14.00;;;6.70;;
7659;SDS011;3872;47.902;8.162;2023-07-24T02:48:52;15.13;;;5.70;;
7659;SDS011;3872;47.902;8.162;2023-07-24T02:51:18;12.00;;;5.50;;
7659;SDS011;3872;47.902;8.162;2023-07-24T02:53:46;11.27;;;4.87;;
7659;SDS011;3872;47.902;8.162;2023-07-24T02:56:13;10.83;;;5.83;;
7659;SDS011;3872;47.902;8.162;2023-07-24T02:58:39;9.57;;;4.70;;
7659;SDS011;3872;47.902;8.162;2023-07-24T03:01:06;11.70;;;5.70;;
7659;SDS011;3872;47.902;8.162;2023-07-24T03:03:33;13.03;;;5.50;;
7659;SDS011;3872;47.902;8.162;2023-07-24T03:06:00;13.87;;;5.80;;
7659;SDS011;3872;47.902;8.162;2023-07-24T03:08:27;10.20;;;4.97;;
7659;SDS011;3872;47.902;8.162;2023-07-24T03:10:55;11.87;;;5.70;;
7659;SDS011;3872;47.902;8.162;2023-07-24T03:13:22;10.87;;;5.63;;
7659;SDS011;3872;47.902;8.162;2023-07-24T03:15:52;14.30;;;5.40;;
7659;SDS011;3872;47.902;8.162;2023-07-24T03:18:19;14.07;;;5.90;;
7659;SDS011;3872;47.902;8.162;2023-07-24T03:20:46;14.77;;;5.90;;
7659;SDS011;3872;47.902;8.162;2023-07-24T03:23:12;17.13;;;6.57;;
7659;SDS011;3872;47.902;8.162;2023-07-24T03:25:39;13.83;;;6.63;;
7659;SDS011;3872;47.902;8.162;2023-07-24T03:28:07;12.03;;;5.43;;
7659;SDS011;3872;47.902;8.162;2023-07-24T03:30:34;15.00;;;6.47;;
7659;SDS011;3872;47.902;8.162;2023-07-24T03:33:01;15.60;;;6.17;;
7659;SDS011;3872;47.902;8.162;2023-07-24T03:35:29;13.40;;;6.70;;
7659;SDS011;3872;47.902;8.162;2023-07-24T03:37:56;10.73;;;5.33;;
7659;SDS011;3872;47.902;8.162;2023-07-24T03:40:22;15.20;;;6.57;;
7659;SDS011;3872;47.902;8.162;2023-07-24T03:42:49;12.07;;;6.13;;
7659;SDS011;3872;47.902;8.162;2023-07-24T03:45:17;14.57;;;6.10;;
7659;SDS011;3872;47.902;8.162;2023-07-24T03:47:43;15.20;;;6.23;;
7659;SDS011;3872;47.902;8.162;2023-07-24T03:50:10;17.87;;;7.33;;
7659;SDS011;3872;47.902;8.162;2023-07-24T03:52:37;13.17;;;6.40;;
7659;SDS011;3872;47.902;8.162;2023-07-24T03:55:04;15.23;;;6.83;;
7659;SDS011;3872;47.902;8.162;2023-07-24T03:57:31;13.30;;;6.80;;
7659;SDS011;3872;47.902;8.162;2023-07-24T03:59:57;16.10;;;6.80;;
7659;SDS011;3872;47.902;8.162;2023-07-24T04:02:25;14.50;;;6.93;;
7659;SDS011;3872;47.902;8.162;2023-07-24T04:04:52;14.50;;;6.93;;
7659;SDS011;3872;47.902;8.162;2023-07-24T04:07:18;13.73;;;7.13;;
7659;SDS011;3872;47.902;8.162;2023-07-24T04:09:45;15.73;;;7.37;;
7659;SDS011;3872;47.902;8.162;2023-07-24T04:12:12;14.90;;;6.80;;
7659;SDS011;3872;47.902;8.162;2023-07-24T04:14:39;17.60;;;6.87;;
7659;SDS011;3872;47.902;8.162;2023-07-24T04:17:05;13.80;;;6.73;;
7659;SDS011;3872;47.902;8.162;2023-07-24T04:19:33;14.73;;;6.87;;
7659;SDS011;3872;47.902;8.162;2023-07-24T04:22:00;14.93;;;7.50;;
7659;SDS011;3872;47.902;8.162;2023-07-24T04:24:26;16.03;;;7.43;;
7659;SDS011;3872;47.902;8.162;2023-07-24T04:26:53;20.30;;;7.80;;
7659;SDS011;3872;47.902;8.162;2023-07-24T04:29:19;14.23;;;6.93;;
7659;SDS011;3872;47.902;8.162;2023-07-24T04:31:48;16.43;;;6.50;;
7659;SDS011;3872;47.902;8.162;2023-07-24T04:34:15;13.57;;;6.10;;
7659;SDS011;3872;47.902;8.162;2023-07-24T04:36:43;14.07;;;6.83;;
7659;SDS011;3872;47.902;8.162;2023-07-24T04:39:09;15.37;;;6.97;;
7659;SDS011;3872;47.902;8.162;2023-07-24T04:41:36;18.80;;;8.27;;
7659;SDS011;3872;47.902;8.162;2023-07-24T04:44:03;16.43;;;6.60;;
7659;SDS011;3872;47.902;8.162;2023-07-24T04:46:29;14.73;;;7.10;;
7659;SDS011;3872;47.902;8.162;2023-07-24T04:48:56;16.07;;;6.70;;
7659;SDS011;3872;47.902;8.162;2023-07-24T04:51:22;13.37;;;6.77;;
7659;SDS011;3872;47.902;8.162;2023-07-24T04:53:50;23.83;;;7.80;;
7659;SDS011;3872;47.902;8.162;2023-07-24T04:56:17;15.83;;;6.97;;
7659;SDS011;3872;47.902;8.162;2023-07-24T04:58:43;15.27;;;6.30;;
7659;SDS011;3872;47.902;8.162;2023-07-24T05:01:10;15.30;;;6.33;;
7659;SDS011;3872;47.902;8.162;2023-07-24T05:03:37;11.27;;;5.23;;
7659;SDS011;3872;47.902;8.162;2023-07-24T05:06:04;13.30;;;5.47;;
7659;SDS011;3872;47.902;8.162;2023-07-24T05:08:30;17.10;;;6.57;;
7659;SDS011;3872;47.902;8.162;2023-07-24T05:10:58;10.73;;;4.73;;
7659;SDS011;3872;47.902;8.162;2023-07-24T05:13:25;14.80;;;5.87;;
7659;SDS011;3872;47.902;8.162;2023-07-24T05:15:52;16.70;;;6.07;;
7659;SDS011;3872;47.902;8.162;2023-07-24T05:18:19;10.50;;;4.93;;
7659;SDS011;3872;47.902;8.162;2023-07-24T05:20:45;10.50;;;4.40;;
7659;SDS011;3872;47.902;8.162;2023-07-24T05:23:13;10.00;;;3.77;;
7659;SDS011;3872;47.902;8.162;2023-07-24T05:25:40;10.27;;;4.40;;
7659;SDS011;3872;47.902;8.162;2023-07-24T05:28:08;9.17;;;4.00;;
7659;SDS011;3872;47.902;8.162;2023-07-24T05:30:35;11.27;;;4.30;;
7659;SDS011;3872;47.902;8.162;2023-07-24T05:33:02;13.30;;;4.03;;
7659;SDS011;3872;47.902;8.162;2023-07-24T05:35:28;9.93;;;3.73;;
7659;SDS011;3872;47.902;8.162;2023-07-24T05:37:55;8.80;;;4.13;;
7659;SDS011;3872;47.902;8.162;2023-07-24T05:40:21;8.70;;;4.00;;
7659;SDS011;3872;47.902;8.162;2023-07-24T05:42:48;9.60;;;3.70;;
7659;SDS011;3872;47.902;8.162;2023-07-24T05:45:16;17.70;;;4.50;;
7659;SDS011;3872;47.902;8.162;2023-07-24T05:47:42;9.37;;;3.80;;
7659;SDS011;3872;47.902;8.162;2023-07-24T05:50:09;9.30;;;3.80;;
7659;SDS011;3872;47.902;8.162;2023-07-24T05:52:38;10.77;;;4.80;;
7659;SDS011;3872;47.902;8.162;2023-07-24T05:55:05;10.10;;;4.43;;
7659;SDS011;3872;47.902;8.162;2023-07-24T05:57:32;7.63;;;3.70;;
7659;SDS011;3872;47.902;8.162;2023-07-24T05:59:58;9.50;;;4.40;;
7659;SDS011;3872;47.902;8.162;2023-07-24T06:02:26;9.40;;;4.57;;
7659;SDS011;3872;47.902;8.162;2023-07-24T06:04:54;9.80;;;3.80;;
7659;SDS011;3872;47.902;8.162;2023-07-24T06:07:21;9.30;;;3.63;;
7659;SDS011;3872;47.902;8.162;2023-07-24T06:09:47;9.47;;;4.30;;
7659;SDS011;3872;47.902;8.162;2023-07-24T06:12:14;9.63;;;4.33;;
7659;SDS011;3872;47.902;8.162;2023-07-24T06:14:40;11.00;;;4.50;;
7659;SDS011;3872;47.902;8.162;2023-07-24T06:17:07;8.70;;;3.93;;
7659;SDS011;3872;47.902;8.162;2023-07-24T06:19:35;7.60;;;3.33;;
7659;SDS011;3872;47.902;8.162;2023-07-24T06:22:02;9.40;;;3.97;;
7659;SDS011;3872;47.902;8.162;2023-07-24T06:24:29;10.40;;;4.40;;
7659;SDS011;3872;47.902;8.162;2023-07-24T06:26:56;15.10;;;5.57;;
7659;SDS011;3872;47.902;8.162;2023-07-24T06:29:22;15.90;;;4.97;;
7659;SDS011;3872;47.902;8.162;2023-07-24T06:31:50;16.33;;;4.73;;
7659;SDS011;3872;47.902;8.162;2023-07-24T06:34:16;8.27;;;4.00;;
7659;SDS011;3872;47.902;8.162;2023-07-24T06:36:44;10.17;;;4.70;;
7659;SDS011;3872;47.902;8.162;2023-07-24T06:39:10;12.13;;;4.27;;
7659;SDS011;3872;47.902;8.162;2023-07-24T06:41:37;7.53;;;3.17;;
7659;SDS011;3872;47.902;8.162;2023-07-24T06:44:03;8.87;;;3.90;;
7659;SDS011;3872;47.902;8.162;2023-07-24T06:46:30;11.40;;;4.03;;
7659;SDS011;3872;47.902;8.162;2023-07-24T06:48:56;9.10;;;3.93;;
7659;SDS011;3872;47.902;8.162;2023-07-24T06:51:23;14.93;;;4.10;;
7659;SDS011;3872;47.902;8.162;2023-07-24T06:53:51;8.27;;;4.10;;
7659;SDS011;3872;47.902;8.162;2023-07-24T06:56:17;14.17;;;4.07;;
7659;SDS011;3872;47.902;8.162;2023-07-24T06:58:44;8.80;;;4.10;;
7659;SDS011;3872;47.902;8.162;2023-07-24T07:01:10;10.60;;;3.83;;
7659;SDS011;3872;47.902;8.162;2023-07-24T07:03:37;9.93;;;4.10;;
7659;SDS011;3872;47.902;8.162;2023-07-24T07:06:03;10.27;;;3.37;;
7659;SDS011;3872;47.902;8.162;2023-07-24T07:08:31;7.90;;;3.13;;
7659;SDS011;3872;47.902;8.162;2023-07-24T07:11:00;9.53;;;3.27;;
7659;SDS011;3872;47.902;8.162;2023-07-24T07:13:27;7.97;;;3.23;;
7659;SDS011;3872;47.902;8.162;2023-07-24T07:15:54;10.10;;;3.00;;
7659;SDS011;3872;47.902;8.162;2023-07-24T07:18:20;8.93;;;2.90;;
7659;SDS011;3872;47.902;8.162;2023-07-24T07:20:47;8.53;;;3.50;;
7659;SDS011;3872;47.902;8.162;2023-07-24T07:23:15;8.57;;;3.70;;
7659;SDS011;3872;47.902;8.162;2023-07-24T07:25:41;9.57;;;3.17;;
7659;SDS011;3872;47.902;8.162;2023-07-24T07:28:11;8.33;;;3.33;;
7659;SDS011;3872;47.902;8.162;2023-07-24T07:30:38;9.10;;;3.10;;
7659;SDS011;3872;47.902;8.162;2023-07-24T07:33:04;10.27;;;3.47;;
7659;SDS011;3872;47.902;8.162;2023-07-24T07:35:31;10.60;;;3.60;;
7659;SDS011;3872;47.902;8.162;2023-07-24T07:37:58;12.20;;;3.70;;
7659;SDS011;3872;47.902;8.162;2023-07-24T07:40:25;8.37;;;3.33;;
7659;SDS011;3872;47.902;8.162;2023-07-24T07:42:52;7.40;;;3.10;;
7659;SDS011;3872;47.902;8.162;2023-07-24T07:45:20;10.03;;;3.50;;
7659;SDS011;3872;47.902;8.162;2023-07-24T07:47:46;8.10;;;3.37;;
7659;SDS011;3872;47.902;8.162;2023-07-24T07:50:13;11.50;;;3.50;;
7659;SDS011;3872;47.902;8.162;2023-07-24T07:52:39;8.80;;;3.40;;
7659;SDS011;3872;47.902;8.162;2023-07-24T07:55:06;10.10;;;3.83;;
7659;SDS011;3872;47.902;8.162;2023-07-24T07:57:34;12.37;;;3.87;;
7659;SDS011;3872;47.902;8.162;2023-07-24T08:00:00;8.93;;;3.20;;
7659;SDS011;3872;47.902;8.162;2023-07-24T08:02:31;8.70;;;3.93;;
7659;SDS011;3872;47.902;8.162;2023-07-24T08:04:59;10.73;;;4.40;;
7659;SDS011;3872;47.902;8.162;2023-07-24T08:07:25;9.93;;;3.60;;
7659;SDS011;3872;47.902;8.162;2023-07-24T08:09:52;7.43;;;3.30;;
7659;SDS011;3872;47.902;8.162;2023-07-24T08:12:19;7.47;;;3.40;;
7659;SDS011;3872;47.902;8.162;2023-07-24T08:14:46;11.47;;;3.97;;
7659;SDS011;3872;47.902;8.162;2023-07-24T08:17:12;9.30;;;3.90;;
7659;SDS011;3872;47.902;8.162;2023-07-24T08:19:40;12.50;;;5.07;;
7659;SDS011;3872;47.902;8.162;2023-07-24T08:22:07;9.60;;;4.00;;
7659;SDS011;3872;47.902;8.162;2023-07-24T08:24:33;8.80;;;4.20;;
7659;SDS011;3872;47.902;8.162;2023-07-24T08:27:00;9.07;;;3.97;;
7659;SDS011;3872;47.902;8.162;2023-07-24T08:29:27;13.80;;;4.30;;
7659;SDS011;3872;47.902;8.162;2023-07-24T08:31:54;9.90;;;3.83;;
7659;SDS011;3872;47.902;8.162;2023-07-24T08:34:20;11.53;;;3.73;;
7659;SDS011;3872;47.902;8.162;2023-07-24T08:36:48;12.20;;;4.07;;
7659;SDS011;3872;47.902;8.162;2023-07-24T08:39:14;7.30;;;3.70;;
7659;SDS011;3872;47.902;8.162;2023-07-24T08:41:41;9.30;;;4.13;;
7659;SDS011;3872;47.902;8.162;2023-07-24T08:44:08;8.93;;;4.00;;
7659;SDS011;3872;47.902;8.162;2023-07-24T08:46:35;10.97;;;4.40;;
7659;SDS011;3872;47.902;8.162;2023-07-24T08:49:03;9.33;;;4.10;;
7659;SDS011;3872;47.902;8.162;2023-07-24T08:51:30;10.70;;;4.53;;
7659;SDS011;3872;47.902;8.162;2023-07-24T08:53:59;10.80;;;4.87;;
7659;SDS011;3872;47.902;8.162;2023-07-24T08:56:27;8.20;;;4.17;;
7659;SDS011;3872;47.902;8.162;2023-07-24T08:58:54;11.03;;;5.13;;
7659;SDS011;3872;47.902;8.162;2023-07-24T09:01:21;13.60;;;4.30;;
7659;SDS011;3872;47.902;8.162;2023-07-24T09:03:48;9.40;;;4.47;;
7659;SDS011;3872;47.902;8.162;2023-07-24T09:06:14;11.87;;;4.90;;
7659;SDS011;3872;47.902;8.162;2023-07-24T09:08:41;12.00;;;4.63;;
7659;SDS011;3872;47.902;8.162;2023-07-24T09:11:11;9.80;;;4.80;;
7659;SDS011;3872;47.902;8.162;2023-07-24T09:13:41;9.37;;;4.23;;
7659;SDS011;3872;47.902;8.162;2023-07-24T09:16:09;8.73;;;4.00;;
7659;SDS011;3872;47.902;8.162;2023-07-24T09:18:46;9.77;;;3.87;;
7659;SDS011;3872;47.902;8.162;2023-07-24T09:21:12;11.20;;;5.30;;
7659;SDS011;3872;47.902;8.162;2023-07-24T09:23:39;11.37;;;4.77;;
7659;SDS011;3872;47.902;8.162;2023-07-24T09:26:09;15.77;;;4.60;;
7659;SDS011;3872;47.902;8.162;2023-07-24T09:28:36;15.30;;;5.70;;
7659;SDS011;3872;47.902;8.162;2023-07-24T09:31:02;10.17;;;4.37;;
7659;SDS011;3872;47.902;8.162;2023-07-24T09:33:37;10.50;;;4.40;;
7659;SDS011;3872;47.902;8.162;2023-07-24T09:36:05;15.80;;;5.47;;
7659;SDS011;3872;47.902;8.162;2023-07-24T09:38:33;11.40;;;3.67;;
7659;SDS011;3872;47.902;8.162;2023-07-24T09:41:00;11.20;;;4.43;;
7659;SDS011;3872;47.902;8.162;2023-07-24T09:43:29;9.20;;;3.70;;
7659;SDS011;3872;47.902;8.162;2023-07-24T09:45:56;9.60;;;3.70;;
7659;SDS011;3872;47.902;8.162;2023-07-24T09:48:24;8.13;;;2.30;;
7659;SDS011;3872;47.902;8.162;2023-07-24T09:50:52;6.73;;;2.13;;
7659;SDS011;3872;47.902;8.162;2023-07-24T09:53:21;5.83;;;1.50;;
7659;SDS011;3872;47.902;8.162;2023-07-24T09:55:51;5.30;;;1.77;;
7659;SDS011;3872;47.902;8.162;2023-07-24T09:58:24;6.27;;;3.17;;
7659;SDS011;3872;47.902;8.162;2023-07-24T10:00:53;5.90;;;1.73;;
7659;SDS011;3872;47.902;8.162;2023-07-24T10:03:21;7.23;;;1.50;;
7659;SDS011;3872;47.902;8.162;2023-07-24T10:05:48;5.87;;;1.60;;
7659;SDS011;3872;47.902;8.162;2023-07-24T10:08:16;5.20;;;1.40;;
7659;SDS011;3872;47.902;8.162;2023-07-24T10:10:43;6.20;;;2.00;;
7659;SDS011;3872;47.902;8.162;2023-07-24T10:13:10;5.63;;;1.60;;
7659;SDS011;3872;47.902;8.162;2023-07-24T10:15:40;4.50;;;1.47;;
7659;SDS011;3872;47.902;8.162;2023-07-24T10:18:10;5.70;;;1.30;;
7659;SDS011;3872;47.902;8.162;2023-07-24T10:20:37;5.20;;;2.13;;
7659;SDS011;3872;47.902;8.162;2023-07-24T10:23:05;4.90;;;1.73;;
7659;SDS011;3872;47.902;8.162;2023-07-24T10:25:33;5.00;;;1.83;;
7659;SDS011;3872;47.902;8.162;2023-07-24T10:28:02;5.90;;;1.67;;
7659;SDS011;3872;47.902;8.162;2023-07-24T10:30:32;6.10;;;1.30;;
7659;SDS011;3872;47.902;8.162;2023-07-24T10:33:08;5.73;;;1.53;;
7659;SDS011;3872;47.902;8.162;2023-07-24T10:35:42;7.07;;;1.60;;
7659;SDS011;3872;47.902;8.162;2023-07-24T10:38:09;5.80;;;1.83;;
7659;SDS011;3872;47.902;8.162;2023-07-24T10:40:36;8.07;;;1.77;;
7659;SDS011;3872;47.902;8.162;2023-07-24T10:43:06;4.60;;;1.30;;
7659;SDS011;3872;47.902;8.162;2023-07-24T10:45:38;6.80;;;1.60;;
7659;SDS011;3872;47.902;8.162;2023-07-24T10:48:05;9.63;;;1.80;;
7659;SDS011;3872;47.902;8.162;2023-07-24T10:50:37;4.73;;;1.70;;
7659;SDS011;3872;47.902;8.162;2023-07-24T10:53:04;6.83;;;2.07;;
7659;SDS011;3872;47.902;8.162;2023-07-24T10:55:31;6.43;;;1.80;;
7659;SDS011;3872;47.902;8.162;2023-07-24T10:57:57;6.10;;;1.50;;
7659;SDS011;3872;47.902;8.162;2023-07-24T11:00:24;5.27;;;2.13;;
7659;SDS011;3872;47.902;8.162;2023-07-24T11:02:52;6.67;;;2.00;;
7659;SDS011;3872;47.902;8.162;2023-07-24T11:05:19;5.50;;;1.87;;
7659;SDS011;3872;47.902;8.162;2023-07-24T11:07:47;5.90;;;2.00;;
7659;SDS011;3872;47.902;8.162;2023-07-24T11:10:15;6.30;;;2.03;;
7659;SDS011;3872;47.902;8.162;2023-07-24T11:12:42;5.40;;;1.93;;
7659;SDS011;3872;47.902;8.162;2023-07-24T11:15:09;8.30;;;3.07;;
7659;SDS011;3872;47.902;8.162;2023-07-24T11:17:37;7.70;;;2.90;;
7659;SDS011;3872;47.902;8.162;2023-07-24T11:20:06;6.20;;;1.97;;
7659;SDS011;3872;47.902;8.162;2023-07-24T11:22:38;6.43;;;2.50;;
7659;SDS011;3872;47.902;8.162;2023-07-24T11:25:07;7.90;;;2.67;;
7659;SDS011;3872;47.902;8.162;2023-07-24T11:27:37;8.37;;;2.77;;
7659;SDS011;3872;47.902;8.162;2023-07-24T11:30:06;5.80;;;1.70;;
7659;SDS011;3872;47.902;8.162;2023-07-24T11:32:33;6.20;;;2.00;;
7659;SDS011;3872;47.902;8.162;2023-07-24T11:35:00;5.97;;;2.33;;
7659;SDS011;3872;47.902;8.162;2023-07-24T11:37:27;6.60;;;1.90;;
7659;SDS011;3872;47.902;8.162;2023-07-24T11:39:56;5.33;;;1.60;;
7659;SDS011;3872;47.902;8.162;2023-07-24T11:42:32;5.80;;;2.03;;
7659;SDS011;3872;47.902;8.162;2023-07-24T11:45:00;5.33;;;1.93;;
7659;SDS011;3872;47.902;8.162;2023-07-24T11:47:27;5.00;;;1.67;;
7659;SDS011;3872;47.902;8.162;2023-07-24T11:49:59;4.40;;;1.60;;
7659;SDS011;3872;47.902;8.162;2023-07-24T11:52:26;5.73;;;1.90;;
7659;SDS011;3872;47.902;8.162;2023-07-24T11:55:05;5.50;;;1.90;;
7659;SDS011;3872;47.902;8.162;2023-07-24T11:57:34;5.30;;;1.53;;
7659;SDS011;3872;47.902;8.162;2023-07-24T12:00:01;5.13;;;1.70;;
7659;SDS011;3872;47.902;8.162;2023-07-24T12:02:33;5.23;;;1.67;;
7659;SDS011;3872;47.902;8.162;2023-07-24T12:04:59;6.43;;;1.90;;
7659;SDS011;3872;47.902;8.162;2023-07-24T12:07:33;5.10;;;1.90;;
7659;SDS011;3872;47.902;8.162;2023-07-24T12:10:01;6.23;;;1.47;;
7659;SDS011;3872;47.902;8.162;2023-07-24T12:12:39;5.60;;;1.67;;
7659;SDS011;3872;47.902;8.162;2023-07-24T12:15:07;4.93;;;1.40;;
7659;SDS011;3872;47.902;8.162;2023-07-24T12:17:34;5.60;;;1.67;;
7659;SDS011;3872;47.902;8.162;2023-07-24T12:20:01;5.70;;;1.63;;
7659;SDS011;3872;47.902;8.162;2023-07-24T12:22:29;4.63;;;1.53;;
7659;SDS011;3872;47.902;8.162;2023-07-24T12:24:56;4.97;;;1.20;;
7659;SDS011;3872;47.902;8.162;2023-07-24T12:27:22;5.87;;;1.30;;
7659;SDS011;3872;47.902;8.162;2023-07-24T12:29:51;5.03;;;1.40;;
7659;SDS011;3872;47.902;8.162;2023-07-24T12:32:17;5.37;;;1.50;;
7659;SDS011;3872;47.902;8.162;2023-07-24T12:34:44;4.40;;;1.20;;
7659;SDS011;3872;47.902;8.162;2023-07-24T12:37:12;4.70;;;1.50;;
7659;SDS011;3872;47.902;8.162;2023-07-24T12:39:39;5.40;;;1.70;;
7659;SDS011;3872;47.902;8.162;2023-07-24T12:42:05;5.30;;;1.73;;
7659;SDS011;3872;47.902;8.162;2023-07-24T12:44:32;6.30;;;1.80;;
7659;SDS011;3872;47.902;8.162;2023-07-24T12:47:00;5.77;;;1.63;;
7659;SDS011;3872;47.902;8.162;2023-07-24T12:49:26;8.70;;;1.70;;
7659;SDS011;3872;47.902;8.162;2023-07-24T12:51:53;6.50;;;1.60;;
7659;SDS011;3872;47.902;8.162;2023-07-24T12:54:19;5.57;;;1.97;;
7659;SDS011;3872;47.902;8.162;2023-07-24T12:56:47;14.10;;;1.83;;
7659;SDS011;3872;47.902;8.162;2023-07-24T12:59:14;4.73;;;1.60;;
7659;SDS011;3872;47.902;8.162;2023-07-24T13:01:42;5.10;;;1.87;;
7659;SDS011;3872;47.902;8.162;2023-07-24T13:04:10;6.13;;;1.90;;
7659;SDS011;3872;47.902;8.162;2023-07-24T13:06:37;6.60;;;1.67;;
7659;SDS011;3872;47.902;8.162;2023-07-24T13:09:04;7.27;;;1.83;;
7659;SDS011;3872;47.902;8.162;2023-07-24T13:11:31;6.97;;;2.00;;
7659;SDS011;3872;47.902;8.162;2023-07-24T13:13:57;7.00;;;1.90;;
7659;SDS011;3872;47.902;8.162;2023-07-24T13:16:24;5.10;;;1.80;;
7659;SDS011;3872;47.902;8.162;2023-07-24T13:18:51;11.10;;;2.57;;
7659;SDS011;3872;47.902;8.162;2023-07-24T13:21:18;5.90;;;1.87;;
7659;SDS011;3872;47.902;8.162;2023-07-24T13:23:45;7.13;;;1.57;;
7659;SDS011;3872;47.902;8.162;2023-07-24T13:26:12;4.40;;;1.47;;
7659;SDS011;3872;47.902;8.162;2023-07-24T13:28:39;4.20;;;1.30;;
7659;SDS011;3872;47.902;8.162;2023-07-24T13:31:13;5.33;;;2.03;;
7659;SDS011;3872;47.902;8.162;2023-07-24T13:33:41;4.90;;;1.80;;
7659;SDS011;3872;47.902;8.162;2023-07-24T13:36:07;4.97;;;1.70;;
7659;SDS011;3872;47.902;8.162;2023-07-24T13:38:35;4.20;;;1.30;;
7659;SDS011;3872;47.902;8.162;2023-07-24T13:41:02;6.90;;;1.93;;
7659;SDS011;3872;47.902;8.162;2023-07-24T13:43:29;9.47;;;2.13;;
7659;SDS011;3872;47.902;8.162;2023-07-24T13:45:56;4.50;;;1.63;;
7659;SDS011;3872;47.902;8.162;2023-07-24T13:48:23;6.90;;;1.57;;
7659;SDS011;3872;47.902;8.162;2023-07-24T13:50:50;9.33;;;2.00;;
7659;SDS011;3872;47.902;8.162;2023-07-24T13:53:17;5.47;;;1.97;;
7659;SDS011;3872;47.902;8.162;2023-07-24T13:55:45;6.33;;;2.10;;
7659;SDS011;3872;47.902;8.162;2023-07-24T13:58:11;4.50;;;1.90;;
7659;SDS011;3872;47.902;8.162;2023-07-24T14:00:38;7.63;;;1.80;;
7659;SDS011;3872;47.902;8.162;2023-07-24T14:03:04;5.17;;;1.90;;
7659;SDS011;3872;47.902;8.162;2023-07-24T14:05:31;7.10;;;2.07;;
7659;SDS011;3872;47.902;8.162;2023-07-24T14:07:58;7.23;;;2.20;;
7659;SDS011;3872;47.902;8.162;2023-07-24T14:10:25;8.90;;;2.50;;
7659;SDS011;3872;47.902;8.162;2023-07-24T14:12:53;6.50;;;2.40;;
7659;SDS011;3872;47.902;8.162;2023-07-24T14:15:19;5.90;;;2.33;;
7659;SDS011;3872;47.902;8.162;2023-07-24T14:17:46;4.67;;;1.80;;
7659;SDS011;3872;47.902;8.162;2023-07-24T14:20:13;7.40;;;2.13;;
7659;SDS011;3872;47.902;8.162;2023-07-24T14:22:39;6.20;;;2.53;;
7659;SDS011;3872;47.902;8.162;2023-07-24T14:25:06;6.10;;;2.67;;
7659;SDS011;3872;47.902;8.162;2023-07-24T14:27:33;7.07;;;2.63;;
7659;SDS011;3872;47.902;8.162;2023-07-24T14:30:01;6.00;;;2.60;;
7659;SDS011;3872;47.902;8.162;2023-07-24T14:32:28;6.97;;;2.93;;
7659;SDS011;3872;47.902;8.162;2023-07-24T14:34:54;16.70;;;3.90;;
7659;SDS011;3872;47.902;8.162;2023-07-24T14:37:21;8.07;;;3.30;;
7659;SDS011;3872;47.902;8.162;2023-07-24T14:39:49;8.47;;;3.50;;
7659;SDS011;3872;47.902;8.162;2023-07-24T14:42:16;7.93;;;3.50;;
7659;SDS011;3872;47.902;8.162;2023-07-24T14:44:42;8.43;;;3.07;;
7659;SDS011;3872;47.902;8.162;2023-07-24T14:47:10;8.73;;;3.23;;
7659;SDS011;3872;47.902;8.162;2023-07-24T14:49:38;8.80;;;3.53;;
7659;SDS011;3872;47.902;8.162;2023-07-24T14:52:05;8.37;;;3.50;;
7659;SDS011;3872;47.902;8.162;2023-07-24T14:54:31;7.27;;;2.93;;
7659;SDS011;3872;47.902;8.162;2023-07-24T14:56:58;6.67;;;3.27;;
7659;SDS011;3872;47.902;8.162;2023-07-24T14:59:24;8.73;;;3.30;;
7659;SDS011;3872;47.902;8.162;2023-07-24T15:01:51;9.30;;;3.97;;
7659;SDS011;3872;47.902;8.162;2023-07-24T15:04:19;7.63;;;3.60;;
7659;SDS011;3872;47.902;8.162;2023-07-24T15:06:46;13.00;;;4.57;;
7659;SDS011;3872;47.902;8.162;2023-07-24T15:09:12;8.73;;;3.90;;
7659;SDS011;3872;47.902;8.162;2023-07-24T15:11:39;11.30;;;4.20;;